Time;durP1;ratioP1;P1;durP2;ratioP2;P2;SDS_P1;SDS_P2;PMS_P1;PMS_P2;Temp;Humidity;BMP_temperature;BMP_pressure;BME280_temperature;BME280_humidity;BME280_pressure;Samples;Min_cycle;Max_cycle;Signal;HPM_P1;HPM_P2
2021/11/27 00:01:01;;;;;;;15.68;11.53;;;;;;;8.53;66.50;98986.75;1706448;83;21003;-69
2021/11/27 00:03:29;;;;;;;16.10;12.13;;;;;;;8.43;66.92;98977.55;1705954;84;21015;-69
2021/11/27 00:05:56;;;;;;;14.63;11.35;;;;;;;8.41;67.16;98973.03;1706218;84;21101;-69
2021/11/27 00:08:24;;;;;;;17.55;11.83;;;;;;;8.41;67.48;98973.82;1705721;82;21042;-70
2021/11/27 00:10:53;;;;;;;18.62;11.88;;;;;;;8.36;67.88;98967.20;1706309;84;20973;-69
2021/11/27 00:13:20;;;;;;;14.30;10.58;;;;;;;8.36;68.02;98963.21;1705891;84;21043;-69
2021/11/27 00:15:49;;;;;;;16.65;11.83;;;;;;;8.38;68.31;98961.62;1706318;84;21013;-69
2021/11/27 00:18:17;;;;;;;15.32;11.12;;;;;;;8.38;68.27;98949.64;1705920;84;21809;-70
2021/11/27 00:20:56;;;;;;;18.15;12.80;;;;;;;8.41;68.39;98939.77;1705879;84;21099;-69
2021/11/27 00:23:24;;;;;;;18.20;11.65;;;;;;;8.36;68.60;98934.49;1705860;83;21534;-69
2021/11/27 00:25:53;;;;;;;19.30;12.63;;;;;;;8.37;68.73;98932.08;1706222;84;21000;-69
2021/11/27 00:28:22;;;;;;;16.35;11.90;;;;;;;8.36;68.95;98921.98;1706012;84;21546;-69
2021/11/27 00:30:49;;;;;;;17.15;13.32;;;;;;;8.35;69.06;98923.58;1706168;84;21019;-69
2021/11/27 00:33:17;;;;;;;19.73;13.85;;;;;;;8.31;69.23;98910.05;1706161;84;21076;-69
2021/11/27 00:35:45;;;;;;;18.37;12.65;;;;;;;8.32;69.38;98904.97;1706094;84;21042;-69
2021/11/27 00:38:12;;;;;;;17.10;13.55;;;;;;;8.30;69.52;98913.00;1715776;82;20969;-69
2021/11/27 00:40:40;;;;;;;19.55;14.07;;;;;;;8.32;69.58;98885.56;1735419;82;21004;-69
2021/11/27 00:43:11;;;;;;;17.05;12.80;;;;;;;8.34;69.56;98904.70;1735365;82;21115;-69
2021/11/27 00:45:37;;;;;;;17.32;12.50;;;;;;;8.37;69.66;98887.64;1735032;82;20946;-70
2021/11/27 00:48:05;;;;;;;21.60;15.65;;;;;;;8.37;69.71;98870.89;1735271;82;21012;-69
2021/11/27 00:50:36;;;;;;;20.32;15.05;;;;;;;8.32;69.77;98886.35;1735547;82;21009;-69
2021/11/27 00:53:04;;;;;;;20.68;14.07;;;;;;;8.30;69.83;98866.45;1714568;82;21586;-69
2021/11/27 00:55:31;;;;;;;20.68;14.43;;;;;;;8.29;69.84;98873.64;1735432;81;21745;-69
2021/11/27 00:57:58;;;;;;;21.37;14.98;;;;;;;8.37;69.81;98843.75;1735076;82;21008;-69
2021/11/27 01:00:32;;;;;;;21.37;16.17;;;;;;;8.37;69.74;98844.29;1735491;82;21103;-70
2021/11/27 01:03:01;;;;;;;19.95;14.90;;;;;;;8.31;69.87;98854.73;1735264;82;21043;-69
2021/11/27 01:05:29;;;;;;;21.93;15.38;;;;;;;8.28;70.03;98847.31;1735533;82;21437;-69
2021/11/27 01:07:56;;;;;;;20.32;14.93;;;;;;;8.26;70.13;98824.19;1734158;82;21531;-69
2021/11/27 01:10:27;;;;;;;20.88;15.43;;;;;;;8.25;70.17;98826.59;1735498;82;21118;-69
2021/11/27 01:12:55;;;;;;;24.67;17.30;;;;;;;8.22;70.26;98819.43;1735670;82;29119;-69
2021/11/27 01:15:25;;;;;;;20.68;15.28;;;;;;;8.18;70.39;98811.77;1734490;81;21174;-69
2021/11/27 01:17:54;;;;;;;25.95;17.32;;;;;;;8.18;70.50;98803.80;1726906;82;21487;-69
2021/11/27 01:20:26;;;;;;;23.45;15.95;;;;;;;8.17;70.58;98801.43;1690944;84;39226;-69
2021/11/27 01:22:53;;;;;;;23.10;16.40;;;;;;;8.13;70.74;98786.58;1691062;84;21577;-69
2021/11/27 01:25:20;;;;;;;25.32;16.62;;;;;;;8.13;70.82;98790.57;1690991;84;21122;-68
2021/11/27 01:27:47;;;;;;;20.08;14.35;;;;;;;8.13;70.89;98775.16;1690908;84;21083;-69
2021/11/27 01:30:14;;;;;;;24.20;16.82;;;;;;;8.15;70.98;98772.45;1691220;84;20976;-69
2021/11/27 01:32:41;;;;;;;23.75;16.42;;;;;;;8.15;71.02;98764.47;1691111;84;21192;-69
2021/11/27 01:35:09;;;;;;;22.80;16.52;;;;;;;8.17;71.09;98750.36;1694357;82;21043;-69
2021/11/27 01:37:38;;;;;;;24.75;16.85;;;;;;;8.17;71.10;98755.68;1707374;82;21036;-69
2021/11/27 01:40:11;;;;;;;24.23;17.17;;;;;;;8.16;71.24;98755.95;1706002;83;21106;-69
2021/11/27 01:42:39;;;;;;;23.50;16.20;;;;;;;8.13;71.35;98742.70;1706262;82;21012;-69
2021/11/27 01:45:09;;;;;;;22.00;15.25;;;;;;;8.12;71.51;98742.43;1706041;83;21135;-69
2021/11/27 01:47:36;;;;;;;23.45;16.30;;;;;;;8.13;71.55;98740.05;1705978;83;20949;-69
2021/11/27 01:50:06;;;;;;;21.87;15.50;;;;;;;8.13;71.61;98718.77;1710330;82;21071;-69
2021/11/27 01:52:33;;;;;;;21.23;15.20;;;;;;;8.15;71.64;98728.56;1735418;82;21068;-68
2021/11/27 01:55:03;;;;;;;23.75;16.57;;;;;;;8.15;71.69;98725.12;1735250;82;21052;-69
2021/11/27 01:57:31;;;;;;;24.07;15.58;;;;;;;8.16;71.73;98706.75;1715257;82;21020;-68
2021/11/27 02:00:01;;;;;;;22.15;16.45;;;;;;;8.14;71.83;98715.03;1706036;83;20973;-69
2021/11/27 02:02:28;;;;;;;22.42;16.48;;;;;;;8.14;71.88;98703.06;1706402;83;21697;-68
2021/11/27 02:04:54;;;;;;;22.90;16.67;;;;;;;8.19;71.89;98707.00;1705828;83;21491;-69
2021/11/27 02:07:21;;;;;;;24.12;16.82;;;;;;;8.21;71.87;98697.39;1724306;82;20953;-69
2021/11/27 02:09:48;;;;;;;21.35;14.70;;;;;;;8.18;71.91;98688.11;1690948;82;21826;-69
2021/11/27 02:12:15;;;;;;;22.22;15.53;;;;;;;8.19;71.91;98688.89;1735809;82;21491;-69
2021/11/27 02:14:43;;;;;;;20.82;15.35;;;;;;;8.19;72.00;98691.04;1735448;82;21025;-69
2021/11/27 02:17:13;;;;;;;20.25;15.00;;;;;;;8.22;71.97;98693.64;1728114;82;21103;-69
2021/11/27 02:19:42;;;;;;;24.50;16.57;;;;;;;8.27;71.98;98686.15;1706130;83;21044;-69
2021/11/27 02:22:09;;;;;;;20.43;14.38;;;;;;;8.30;71.95;98685.58;1685857;84;21543;-69
2021/11/27 02:24:38;;;;;;;23.05;15.38;;;;;;;8.30;71.99;98672.28;1703922;83;21040;-69
2021/11/27 02:27:06;;;;;;;18.55;13.38;;;;;;;8.30;72.02;98663.75;1706107;84;21205;-69
2021/11/27 02:29:34;;;;;;;20.25;14.00;;;;;;;8.31;72.06;98667.98;1706071;84;20984;-69
2021/11/27 02:32:01;;;;;;;20.90;15.13;;;;;;;8.29;72.08;98654.20;1705974;84;21000;-69
2021/11/27 02:34:28;;;;;;;20.35;15.05;;;;;;;8.30;72.12;98645.14;1706096;83;22300;-69
2021/11/27 02:37:05;;;;;;;21.40;14.60;;;;;;;8.29;72.24;98646.73;1706290;82;21571;-69
2021/11/27 02:39:35;;;;;;;17.77;12.75;;;;;;;8.28;72.37;98651.81;1706270;84;21012;-68
2021/11/27 02:42:04;;;;;;;18.90;13.62;;;;;;;8.29;72.49;98640.09;1705911;84;21013;-68
2021/11/27 02:44:31;;;;;;;19.17;13.62;;;;;;;8.31;72.56;98632.62;1706302;84;21405;-69
2021/11/27 02:46:59;;;;;;;16.55;11.97;;;;;;;8.32;72.61;98632.32;1706337;84;21114;-69
2021/11/27 02:49:26;;;;;;;17.07;12.82;;;;;;;8.37;72.66;98634.13;1705976;84;21083;-68
2021/11/27 02:51:53;;;;;;;18.00;13.03;;;;;;;8.37;72.67;98622.95;1706230;83;21052;-68
2021/11/27 02:54:20;;;;;;;18.40;12.53;;;;;;;8.38;72.81;98623.77;1705931;84;21519;-69
2021/11/27 02:56:47;;;;;;;16.17;12.07;;;;;;;8.45;72.79;98620.19;1706248;84;21566;-68
2021/11/27 02:59:18;;;;;;;16.20;11.30;;;;;;;8.54;72.70;98615.01;1706000;84;21209;-68
2021/11/27 03:01:47;;;;;;;16.12;11.50;;;;;;;8.57;72.66;98609.89;1706374;84;21575;-69
2021/11/27 03:04:15;;;;;;;15.15;11.22;;;;;;;8.59;72.73;98610.95;1705684;83;21023;-68
2021/11/27 03:06:43;;;;;;;16.30;11.38;;;;;;;8.54;73.00;98609.14;1706426;82;21004;-68
2021/11/27 03:09:13;;;;;;;15.72;11.35;;;;;;;8.58;73.04;98608.02;1706561;84;21000;-69
2021/11/27 03:11:40;;;;;;;14.75;11.10;;;;;;;8.59;73.09;98606.41;1706154;84;21805;-69
2021/11/27 03:14:06;;;;;;;13.72;10.25;;;;;;;8.62;73.09;98591.19;1713884;83;21008;-69
2021/11/27 03:16:38;;;;;;;15.00;11.10;;;;;;;8.62;73.17;98589.86;1718614;83;20999;-69
2021/11/27 03:19:07;;;;;;;12.93;9.88;;;;;;;8.64;73.24;98581.58;1718629;83;21094;-68
2021/11/27 03:21:33;;;;;;;12.30;8.75;;;;;;;8.67;73.31;98583.11;1718583;83;20944;-69
2021/11/27 03:24:01;;;;;;;13.50;9.90;;;;;;;8.73;73.36;98587.02;1711268;82;21097;-69
2021/11/27 03:26:27;;;;;;;11.88;8.50;;;;;;;8.75;73.38;98581.63;1711037;82;21020;-69
2021/11/27 03:28:54;;;;;;;11.90;8.28;;;;;;;8.78;73.43;98584.26;1706075;84;21004;-69
2021/11/27 03:31:21;;;;;;;11.55;8.25;;;;;;;8.81;73.48;98581.80;1705742;84;21043;-69
2021/11/27 03:33:48;;;;;;;9.63;7.22;;;;;;;8.85;73.60;98578.01;1705964;84;21598;-69
2021/11/27 03:36:16;;;;;;;9.53;7.47;;;;;;;8.88;73.65;98572.91;1706111;82;21818;-69
2021/11/27 03:38:43;;;;;;;11.97;8.10;;;;;;;8.90;73.69;98576.59;1706262;84;21590;-69
2021/11/27 03:41:10;;;;;;;8.50;6.87;;;;;;;8.91;73.76;98571.52;1706020;84;21012;-69
2021/11/27 03:43:38;;;;;;;9.18;7.08;;;;;;;8.93;73.88;98570.69;1715714;82;20996;-69
2021/11/27 03:46:06;;;;;;;9.93;7.85;;;;;;;8.98;73.96;98573.78;1735435;82;21234;-69
2021/11/27 03:48:35;;;;;;;8.53;6.35;;;;;;;9.01;73.96;98572.66;1706831;82;21035;-69
2021/11/27 03:51:25;;;;;;;8.33;6.53;;;;;;;9.04;74.02;98565.41;1670794;85;21618;-69
2021/11/27 03:53:55;;;;;;;9.48;6.45;;;;;;;9.07;74.02;98563.48;1706139;83;21100;-69
2021/11/27 03:56:26;;;;;;;8.63;6.08;;;;;;;9.12;74.06;98562.62;1730425;82;20985;-69
2021/11/27 03:58:58;;;;;;;8.25;5.87;;;;;;;9.16;74.06;98563.59;1734883;81;21064;-69
2021/11/27 04:01:25;;;;;;;7.53;5.47;;;;;;;9.22;74.06;98566.96;1734636;82;21020;-69
2021/11/27 04:03:54;;;;;;;6.33;4.70;;;;;;;9.29;74.06;98561.47;1734938;82;21052;-69
2021/11/27 04:06:22;;;;;;;6.72;4.78;;;;;;;9.37;74.04;98557.31;1735427;82;21044;-69
2021/11/27 04:08:48;;;;;;;5.40;3.87;;;;;;;9.40;73.99;98546.84;1735323;82;21040;-69
2021/11/27 04:11:16;;;;;;;5.83;3.25;;;;;;;9.43;73.98;98540.69;1735454;82;21047;-69
2021/11/27 04:13:43;;;;;;;4.40;2.92;;;;;;;9.48;74.03;98537.93;1722497;82;21138;-69
2021/11/27 04:16:10;;;;;;;4.87;2.62;;;;;;;9.54;74.02;98537.52;1705983;84;21008;-69
2021/11/27 04:18:37;;;;;;;4.03;2.50;;;;;;;9.60;73.98;98532.30;1726690;82;21546;-69
2021/11/27 04:21:04;;;;;;;4.00;2.58;;;;;;;9.66;73.97;98526.33;1735596;82;21526;-69
2021/11/27 04:23:32;;;;;;;4.33;2.50;;;;;;;9.71;73.94;98536.11;1735168;82;20982;-69
2021/11/27 04:26:01;;;;;;;3.45;2.30;;;;;;;9.74;73.90;98542.95;1735039;81;21179;-69
2021/11/27 04:28:29;;;;;;;4.20;2.30;;;;;;;9.78;73.86;98543.14;1735279;82;21408;-69
2021/11/27 04:30:57;;;;;;;3.77;2.30;;;;;;;9.82;73.81;98536.11;1735471;82;20988;-69
2021/11/27 04:33:24;;;;;;;4.60;2.58;;;;;;;9.83;73.77;98549.12;1735436;81;21035;-69
2021/11/27 04:35:53;;;;;;;3.70;2.10;;;;;;;9.83;73.74;98543.01;1717895;81;21586;-69
2021/11/27 04:38:22;;;;;;;4.03;2.12;;;;;;;9.83;73.75;98551.01;1706046;84;21990;-68
2021/11/27 04:40:50;;;;;;;3.85;2.37;;;;;;;9.81;73.88;98551.33;1717043;82;20993;-68
2021/11/27 04:43:17;;;;;;;3.58;2.40;;;;;;;9.83;73.92;98554.45;1722885;82;21114;-68
2021/11/27 04:45:44;;;;;;;4.15;2.50;;;;;;;9.88;73.88;98562.13;1706079;83;21012;-68
2021/11/27 04:48:11;;;;;;;3.40;2.00;;;;;;;9.90;73.84;98552.71;1705963;84;21031;-68
2021/11/27 04:50:39;;;;;;;4.80;2.20;;;;;;;9.94;73.81;98546.26;1705718;84;21095;-68
2021/11/27 04:53:09;;;;;;;4.35;2.52;;;;;;;9.96;73.72;98548.06;1706170;83;21552;-68
2021/11/27 04:55:37;;;;;;;5.08;3.12;;;;;;;9.97;73.68;98546.44;1705907;83;20976;-68
2021/11/27 04:58:06;;;;;;;4.92;2.87;;;;;;;9.99;73.63;98546.91;1706159;84;21083;-68
2021/11/27 05:00:38;;;;;;;5.47;2.95;;;;;;;10.01;73.62;98551.41;1706410;83;20964;-69
2021/11/27 05:03:06;;;;;;;6.53;3.98;;;;;;;10.04;73.57;98554.02;1705675;84;21046;-69
2021/11/27 05:05:34;;;;;;;8.03;4.75;;;;;;;10.07;73.59;98557.42;1706119;82;20997;-69
2021/11/27 05:08:01;;;;;;;7.58;4.83;;;;;;;10.13;73.52;98558.07;1706015;84;21024;-69
2021/11/27 05:10:27;;;;;;;7.58;4.72;;;;;;;10.14;73.50;98559.12;1706030;84;21024;-69
2021/11/27 05:12:54;;;;;;;9.20;5.40;;;;;;;10.19;73.47;98564.32;1705810;84;21059;-69
2021/11/27 05:15:22;;;;;;;8.83;6.25;;;;;;;10.24;73.34;98558.88;1706341;84;21110;-69
2021/11/27 05:17:52;;;;;;;9.20;6.90;;;;;;;10.29;73.29;98564.66;1705917;83;21012;-69
2021/11/27 05:20:27;;;;;;;9.08;6.65;;;;;;;10.31;73.20;98569.94;1703905;84;21047;-70
2021/11/27 05:22:54;;;;;;;10.05;5.92;;;;;;;10.36;73.16;98566.89;1705860;84;21001;-70
2021/11/27 05:25:22;;;;;;;6.87;5.37;;;;;;;10.40;73.12;98565.19;1706039;84;21131;-69
2021/11/27 05:27:51;;;;;;;6.85;4.87;;;;;;;10.43;73.06;98564.59;1648530;84;21204;-69
2021/11/27 05:30:22;;;;;;;7.40;5.08;;;;;;;10.45;73.00;98560.52;1703203;84;21126;-69
2021/11/27 05:33:06;;;;;;;7.72;5.40;;;;;;;10.48;72.91;98563.92;1705041;84;21004;-69
2021/11/27 05:35:23;;;;;;;;;;;;;;;10.51;72.91;98563.31;1706005;83;21586;-69
2021/11/27 05:37:51;;;;;;;7.85;6.50;;;;;;;10.58;72.85;98569.55;1705952;84;20142;-68
2021/11/27 05:40:17;;;;;;;9.90;6.53;;;;;;;10.61;72.73;98566.83;1706271;84;21121;-68
2021/11/27 05:42:44;;;;;;;8.58;6.72;;;;;;;10.62;72.61;98571.06;1705746;84;20993;-68
2021/11/27 05:45:12;;;;;;;11.60;7.17;;;;;;;10.64;72.62;98572.89;1706131;84;20964;-68
2021/11/27 05:47:41;;;;;;;9.00;7.20;;;;;;;10.69;72.60;98574.87;1705975;84;21008;-68
2021/11/27 05:50:10;;;;;;;10.23;8.33;;;;;;;10.71;72.51;98571.91;1706146;84;20996;-68
2021/11/27 05:52:39;;;;;;;10.43;7.67;;;;;;;10.74;72.51;98576.64;1706079;84;21522;-69
2021/11/27 05:55:07;;;;;;;9.33;7.15;;;;;;;10.77;72.48;98576.03;1706258;84;21031;-69
2021/11/27 05:57:34;;;;;;;9.30;7.12;;;;;;;10.82;72.34;98573.77;1706146;84;21032;-68
2021/11/27 06:00:03;;;;;;;9.98;6.47;;;;;;;10.84;72.29;98574.26;1706349;84;21495;-69
2021/11/27 06:02:32;;;;;;;7.12;6.05;;;;;;;10.86;72.25;98574.72;1705377;84;21554;-69
2021/11/27 06:04:59;;;;;;;7.70;6.08;;;;;;;10.90;72.25;98577.82;1706269;82;21204;-69
2021/11/27 06:07:26;;;;;;;7.35;5.47;;;;;;;10.92;72.21;98574.28;1706126;83;21044;-69
2021/11/27 06:09:53;;;;;;;8.28;5.72;;;;;;;10.96;72.15;98567.25;1706220;84;21139;-69
2021/11/27 06:12:20;;;;;;;8.23;5.90;;;;;;;10.99;72.09;98568.49;1706189;84;21076;-69
2021/11/27 06:14:48;;;;;;;8.43;6.10;;;;;;;11.01;72.02;98577.78;1705987;84;21028;-69
2021/11/27 06:17:16;;;;;;;10.43;5.97;;;;;;;11.03;71.92;98573.48;1706099;84;21224;-69
2021/11/27 06:19:44;;;;;;;9.30;7.05;;;;;;;11.04;71.75;98573.16;1706322;84;20985;-69
2021/11/27 06:22:11;;;;;;;8.33;6.37;;;;;;;11.05;71.65;98579.29;1707890;82;21075;-69
2021/11/27 06:24:37;;;;;;;9.93;6.83;;;;;;;11.06;71.65;98572.08;1706289;83;21043;-69
2021/11/27 06:27:06;;;;;;;10.80;6.90;;;;;;;11.04;71.62;98571.83;1711243;82;21100;-70
2021/11/27 06:29:34;;;;;;;11.18;7.17;;;;;;;11.09;71.63;98574.11;1706338;84;21072;-69
2021/11/27 06:32:08;;;;;;;11.22;7.30;;;;;;;11.10;71.57;98571.70;1715529;82;21068;-69
2021/11/27 06:34:32;;;;;;;9.55;6.80;;;;;;;11.10;71.61;98575.70;1721654;82;20968;-69
2021/11/27 06:37:00;;;;;;;9.68;7.30;;;;;;;11.13;71.67;98577.21;1706266;82;21076;-69
2021/11/27 06:39:27;;;;;;;9.35;7.10;;;;;;;11.17;71.78;98578.72;1706309;84;21083;-70
2021/11/27 06:41:54;;;;;;;9.70;7.45;;;;;;;11.23;71.83;98582.83;1706079;82;21093;-69
2021/11/27 06:44:25;;;;;;;8.98;7.15;;;;;;;11.29;71.84;98584.27;1704632;83;26611;-69
2021/11/27 06:46:52;;;;;;;11.00;7.75;;;;;;;11.37;71.91;98586.72;1706213;82;21047;-69
2021/11/27 06:49:19;;;;;;;10.20;7.75;;;;;;;11.45;71.89;98592.11;1706341;84;21455;-69
2021/11/27 06:51:46;;;;;;;11.08;7.72;;;;;;;11.53;71.90;98591.09;1706350;84;21601;-69
2021/11/27 06:54:12;;;;;;;11.00;8.00;;;;;;;11.61;71.89;98593.77;1706355;84;21137;-69
2021/11/27 06:56:40;;;;;;;10.48;7.65;;;;;;;11.67;71.87;98601.10;1706482;84;20909;-70
2021/11/27 06:59:07;;;;;;;8.48;6.90;;;;;;;11.72;71.85;98603.09;1706049;84;21032;-68
2021/11/27 07:01:41;;;;;;;10.68;7.70;;;;;;;11.78;71.82;98608.27;1703444;82;20989;-70
2021/11/27 07:04:12;;;;;;;11.05;8.10;;;;;;;11.82;71.80;98607.36;1732725;82;21079;-69
2021/11/27 07:06:57;;;;;;;9.80;8.28;;;;;;;11.86;71.78;98597.63;1735770;82;21115;-68
2021/11/27 07:09:26;;;;;;;9.60;7.53;;;;;;;11.91;71.70;98601.50;1732859;82;21035;-69
2021/11/27 07:12:07;;;;;;;9.85;8.28;;;;;;;11.95;71.58;98596.31;1735704;82;21567;-69
2021/11/27 07:14:35;;;;;;;10.95;8.25;;;;;;;11.99;71.55;98604.49;1715366;82;21099;-68
2021/11/27 07:17:02;;;;;;;11.00;8.73;;;;;;;12.08;71.42;98606.63;1735699;82;20988;-69
2021/11/27 07:19:32;;;;;;;10.60;8.73;;;;;;;12.12;71.31;98600.33;1736421;82;21151;-69
2021/11/27 07:21:58;;;;;;;10.70;8.83;;;;;;;12.23;71.03;98598.11;1737821;82;20937;-69
2021/11/27 07:24:25;;;;;;;10.93;8.85;;;;;;;12.30;70.79;98608.34;1713801;82;20925;-68
2021/11/27 07:26:52;;;;;;;13.43;10.32;;;;;;;12.32;70.63;98610.95;1709430;84;21001;-69
2021/11/27 07:29:19;;;;;;;11.73;9.30;;;;;;;12.35;70.53;98610.32;1709563;82;21008;-69
2021/11/27 07:31:49;;;;;;;11.97;10.13;;;;;;;12.39;70.35;98607.23;1708895;84;21173;-69
2021/11/27 07:34:17;;;;;;;12.13;9.48;;;;;;;12.41;70.23;98602.92;1675179;85;21131;-70
2021/11/27 07:36:44;;;;;;;11.68;9.68;;;;;;;12.42;70.15;98606.61;1699178;84;21055;-69
2021/11/27 07:39:11;;;;;;;12.58;10.23;;;;;;;12.39;70.25;98603.22;1697174;84;21035;-69
2021/11/27 07:41:38;;;;;;;10.98;9.43;;;;;;;12.41;70.19;98605.05;1703650;84;21011;-70
2021/11/27 07:44:06;;;;;;;13.90;9.68;;;;;;;12.44;70.10;98608.98;1673095;84;21134;-68
2021/11/27 07:46:56;;;;;;;12.85;10.50;;;;;;;12.46;70.00;98614.02;1682311;84;20976;-68
2021/11/27 07:49:32;;;;;;;12.85;10.38;;;;;;;12.49;69.89;98618.73;1699534;84;20992;-69
2021/11/27 07:52:21;;;;;;;13.93;10.40;;;;;;;12.48;69.88;98617.95;1699922;84;21055;-69
2021/11/27 07:54:45;;;;;;;14.38;10.48;;;;;;;12.52;69.92;98627.48;1659602;86;21401;-70
2021/11/27 07:57:12;;;;;;;12.23;10.08;;;;;;;12.56;69.84;98623.84;1738637;82;22041;-69
2021/11/27 07:59:39;;;;;;;15.28;11.03;;;;;;;12.65;69.68;98621.94;1738394;82;20973;-69
2021/11/27 08:02:06;;;;;;;14.58;11.22;;;;;;;12.68;69.65;98620.52;1736592;82;21138;-69
2021/11/27 08:04:33;;;;;;;13.27;11.37;;;;;;;12.73;69.59;98629.72;1736395;82;21024;-69
2021/11/27 08:07:00;;;;;;;13.83;11.40;;;;;;;12.79;69.54;98628.45;1737313;82;21804;-69
2021/11/27 08:09:27;;;;;;;13.27;11.27;;;;;;;12.84;69.44;98629.63;1735680;82;21677;-69
2021/11/27 08:11:54;;;;;;;13.43;11.60;;;;;;;12.88;69.33;98627.88;1735380;82;21149;-68
2021/11/27 08:14:26;;;;;;;14.67;11.53;;;;;;;12.93;69.18;98628.81;1735712;82;21745;-69
2021/11/27 08:16:50;;;;;;;15.03;12.47;;;;;;;12.95;69.07;98630.63;1735597;82;21588;-68
2021/11/27 08:19:17;;;;;;;15.07;11.73;;;;;;;12.99;68.98;98629.66;1735706;82;21348;-69
2021/11/27 08:21:44;;;;;;;15.40;12.30;;;;;;;13.03;68.90;98619.08;1735690;82;21269;-69
2021/11/27 08:24:13;;;;;;;15.97;12.60;;;;;;;13.08;68.78;98625.06;1735479;82;21349;-69
2021/11/27 08:26:40;;;;;;;15.27;12.67;;;;;;;13.13;68.68;98622.78;1735618;82;21311;-69
2021/11/27 08:29:07;;;;;;;18.23;13.23;;;;;;;13.18;68.54;98625.27;1735602;82;21333;-69
2021/11/27 08:31:34;;;;;;;17.37;13.30;;;;;;;13.25;68.48;98620.78;1725665;82;21414;-69
2021/11/27 08:34:01;;;;;;;16.07;12.90;;;;;;;13.36;68.34;98617.44;1706130;84;21285;-69
2021/11/27 08:36:28;;;;;;;18.43;13.80;;;;;;;13.44;68.02;98617.16;1706312;84;21308;-69
2021/11/27 08:38:56;;;;;;;16.53;13.53;;;;;;;13.50;67.78;98619.89;1706152;84;21032;-69
2021/11/27 08:41:23;;;;;;;17.87;14.10;;;;;;;13.57;67.66;98616.70;1706211;84;21260;-69
2021/11/27 08:43:51;;;;;;;16.20;12.60;;;;;;;13.67;67.39;98627.61;1706009;84;21280;-70
2021/11/27 08:46:18;;;;;;;15.83;13.30;;;;;;;13.74;67.06;98616.59;1705977;84;21228;-70
2021/11/27 08:48:45;;;;;;;17.57;13.43;;;;;;;13.81;66.72;98620.10;1706016;84;21192;-70
2021/11/27 08:51:12;;;;;;;15.83;12.70;;;;;;;13.89;66.42;98617.16;1706633;83;21099;-71
2021/11/27 08:53:39;;;;;;;15.40;12.13;;;;;;;13.99;66.03;98616.20;1706495;84;21220;-70
2021/11/27 08:56:07;;;;;;;16.57;13.67;;;;;;;14.05;65.59;98619.48;1706492;84;21969;-70
2021/11/27 08:58:36;;;;;;;16.53;13.17;;;;;;;14.12;65.06;98611.69;1706082;84;21235;-70
2021/11/27 09:01:06;;;;;;;16.90;13.73;;;;;;;14.13;64.62;98609.23;1706262;82;21040;-70
2021/11/27 09:03:33;;;;;;;16.30;13.17;;;;;;;14.21;64.49;98614.29;1672162;85;21454;-69
2021/11/27 09:06:01;;;;;;;15.13;12.40;;;;;;;14.25;63.76;98618.69;1672342;85;21321;-69
2021/11/27 09:08:28;;;;;;;14.10;11.20;;;;;;;14.24;63.44;98627.84;1672020;85;21237;-69
2021/11/27 09:10:55;;;;;;;14.23;11.77;;;;;;;14.30;63.17;98621.16;1672209;85;21247;-70
2021/11/27 09:13:22;;;;;;;16.27;13.27;;;;;;;14.31;62.87;98626.78;1672133;85;21315;-71
2021/11/27 09:15:50;;;;;;;16.77;11.97;;;;;;;14.29;62.57;98627.66;1672387;85;21244;-69
2021/11/27 09:18:17;;;;;;;16.03;12.53;;;;;;;14.31;62.31;98633.50;1667329;86;22471;-70
2021/11/27 09:20:46;;;;;;;16.23;12.77;;;;;;;14.30;62.31;98634.59;1672319;85;21238;-70
2021/11/27 09:23:13;;;;;;;16.80;13.97;;;;;;;14.31;62.19;98634.03;1672259;85;22973;-70
2021/11/27 09:25:40;;;;;;;17.60;13.47;;;;;;;14.23;61.54;98637.58;1672443;85;21606;-69
2021/11/27 09:28:08;;;;;;;17.77;13.57;;;;;;;14.16;61.57;98637.33;1675189;85;21283;-69
2021/11/27 09:30:36;;;;;;;15.83;12.50;;;;;;;14.09;61.40;98639.19;1672466;85;21226;-71
2021/11/27 09:33:02;;;;;;;15.10;12.40;;;;;;;14.05;61.41;98646.33;1672202;85;21753;-69
2021/11/27 09:35:30;;;;;;;16.20;13.10;;;;;;;14.01;61.53;98650.76;1667654;85;21380;-70
2021/11/27 09:37:57;;;;;;;16.53;13.03;;;;;;;13.97;61.51;98651.19;1667540;86;21356;-70
2021/11/27 09:40:25;;;;;;;16.10;12.40;;;;;;;13.94;61.58;98655.86;1667702;86;21325;-70
2021/11/27 09:42:53;;;;;;;16.07;12.70;;;;;;;13.90;61.51;98649.02;1667555;84;21165;-69
2021/11/27 09:45:27;;;;;;;15.90;13.27;;;;;;;13.89;61.40;98649.36;1696018;84;21325;-70
2021/11/27 09:47:58;;;;;;;17.83;12.60;;;;;;;13.91;61.50;98653.27;1695241;84;21823;-70
2021/11/27 09:50:25;;;;;;;15.30;12.53;;;;;;;13.96;61.60;98653.09;1668320;84;21295;-69
2021/11/27 09:52:52;;;;;;;14.80;12.43;;;;;;;14.04;61.54;98649.55;1667678;84;21790;-70
2021/11/27 09:55:20;;;;;;;15.10;11.80;;;;;;;14.12;61.44;98645.25;1667883;84;21811;-69
2021/11/27 09:57:49;;;;;;;16.67;12.67;;;;;;;14.21;61.31;98638.45;1667282;84;21243;-69
2021/11/27 10:00:19;;;;;;;14.87;11.33;;;;;;;14.29;61.15;98637.06;1667883;84;21247;-69
2021/11/27 10:02:46;;;;;;;14.67;12.33;;;;;;;14.42;60.89;98639.81;1667551;86;21219;-69
2021/11/27 10:05:14;;;;;;;14.77;11.47;;;;;;;14.52;60.47;98626.78;1667935;86;21332;-69
2021/11/27 10:52:20;;;;;;;13.83;11.03;;;;;;;14.62;57.35;98617.53;1908412;74;22191;-68
2021/11/27 10:54:52;;;;;;;12.87;10.17;;;;;;;14.53;57.32;98625.66;1862998;76;20955;-69
2021/11/27 10:57:37;;;;;;;13.80;10.18;;;;;;;14.47;57.06;98631.53;1862935;76;21135;-69
2021/11/27 11:00:11;;;;;;;12.23;9.80;;;;;;;14.41;57.06;98634.19;1862683;76;20895;-69
2021/11/27 11:02:40;;;;;;;11.70;9.60;;;;;;;14.34;57.15;98636.63;1829129;78;21031;-69
2021/11/27 11:05:14;;;;;;;11.37;9.00;;;;;;;14.28;57.21;98634.69;1829188;78;21275;-69
2021/11/27 11:07:55;;;;;;;11.83;9.80;;;;;;;14.28;57.17;98635.49;1829109;78;21170;-69
2021/11/27 11:10:25;;;;;;;12.37;9.80;;;;;;;14.33;57.25;98639.87;1843642;77;21788;-69
2021/11/27 11:12:57;;;;;;;11.25;8.90;;;;;;;14.37;57.15;98640.78;1861619;76;21155;-69
2021/11/27 11:15:33;;;;;;;10.32;8.43;;;;;;;14.43;56.87;98640.03;1860620;77;20954;-70
2021/11/27 11:18:25;;;;;;;11.83;9.43;;;;;;;14.51;56.77;98643.22;1859900;77;21041;-69
2021/11/27 11:20:58;;;;;;;12.27;9.53;;;;;;;14.64;56.56;98645.39;1860106;77;21110;-70
2021/11/27 11:23:27;;;;;;;12.50;9.63;;;;;;;14.87;56.31;98643.93;1860432;77;21775;-69
2021/11/27 11:25:58;;;;;;;11.77;10.17;;;;;;;15.00;56.34;98646.06;1860231;77;21106;-70
2021/11/27 11:28:28;;;;;;;12.77;9.97;;;;;;;15.16;56.27;98643.52;1860606;77;21265;-70
2021/11/27 11:31:01;;;;;;;12.87;10.17;;;;;;;15.29;55.83;98647.02;1852757;75;21283;-70
2021/11/27 11:33:31;;;;;;;11.57;9.23;;;;;;;15.37;55.85;98656.91;1862875;76;21223;-71
2021/11/27 11:35:57;;;;;;;11.97;9.23;;;;;;;15.57;55.22;98660.05;1862851;77;21843;-70
2021/11/27 11:38:24;;;;;;;12.93;10.20;;;;;;;15.68;54.88;98663.10;1863058;77;21337;-69
2021/11/27 11:40:53;;;;;;;13.47;9.87;;;;;;;15.74;53.93;98665.02;1841539;77;21268;-69
2021/11/27 11:43:20;;;;;;;11.87;10.10;;;;;;;15.77;53.74;98672.42;1863035;77;21420;-68
2021/11/27 11:45:47;;;;;;;13.33;9.97;;;;;;;15.78;53.53;98676.67;1862470;76;21409;-69
2021/11/27 11:48:20;;;;;;;11.97;9.73;;;;;;;15.84;53.50;98688.78;1855607;77;21354;-68
2021/11/27 11:50:49;;;;;;;11.67;9.33;;;;;;;15.84;53.50;98688.78;1849798;76;21369;-69
2021/11/27 11:53:39;;;;;;;10.47;9.23;;;;;;;15.69;52.36;98692.39;1839727;77;21461;-68
2021/11/27 11:56:09;;;;;;;11.40;8.87;;;;;;;15.69;52.36;98692.39;1841470;77;21447;-70
2021/11/27 11:58:40;;;;;;;;;;;;;;;15.54;52.90;98692.23;1831287;77;21821;-69
2021/11/27 12:01:25;;;;;;;11.80;9.23;;;;;;;15.47;53.47;98699.52;1861853;77;21068;-69
2021/11/27 12:03:52;;;;;;;11.57;9.50;;;;;;;15.47;53.47;98699.52;1861381;77;21861;-69
2021/11/27 12:06:26;;;;;;;10.93;9.20;;;;;;;15.45;52.85;98697.14;1861885;77;21548;-72
2021/11/27 12:08:59;;;;;;;9.57;7.17;;;;;;;15.41;52.49;98707.57;1860579;77;21345;-70
2021/11/27 12:11:55;;;;;;;9.03;7.77;;;;;;;15.39;52.54;98700.38;1833244;77;21414;-69
2021/11/27 12:14:28;;;;;;;9.80;7.97;;;;;;;15.39;52.54;98700.38;1851408;77;21266;-69
2021/11/27 12:17:16;;;;;;;8.40;6.97;;;;;;;15.36;52.75;98707.77;1854813;77;21278;-70
2021/11/27 12:19:57;;;;;;;12.17;8.50;;;;;;;15.37;52.54;98717.44;1861950;76;21239;-68